createdAt,value
2018-01-22T00:01:06.844Z,15.57
2018-01-22T00:03:35.386Z,16.45
2018-01-22T00:06:03.649Z,14.80
2018-01-22T00:08:32.197Z,17.12
2018-01-22T00:11:00.447Z,15.97
2018-01-22T00:13:28.702Z,17.07
2018-01-22T00:15:56.944Z,18.37
2018-01-22T00:18:25.186Z,17.50
2018-01-22T00:20:53.433Z,17.60
2018-01-22T00:23:21.704Z,19.50
2018-01-22T00:25:49.959Z,18.33
2018-01-22T00:28:18.541Z,15.25
2018-01-22T00:30:46.793Z,12.63
2018-01-22T00:33:15.053Z,14.53
2018-01-22T00:35:43.304Z,25.70
2018-01-22T00:38:11.556Z,16.37
2018-01-22T00:40:39.797Z,13.90
2018-01-22T00:43:08.049Z,14.63
2018-01-22T00:45:36.309Z,14.33
2018-01-22T00:48:04.589Z,12.53
2018-01-22T00:50:32.844Z,13.40
2018-01-22T00:53:01.102Z,16.57
2018-01-22T00:55:29.365Z,19.87
2018-01-22T00:57:57.629Z,14.00
2018-01-22T01:00:25.880Z,15.40
2018-01-22T01:02:54.143Z,16.97
2018-01-22T01:05:22.390Z,15.80
2018-01-22T01:07:50.636Z,15.00
2018-01-22T01:10:18.879Z,17.90
2018-01-22T01:12:47.510Z,13.30
2018-01-22T01:15:15.774Z,11.03
2018-01-22T01:17:44.026Z,14.17
2018-01-22T01:20:12.288Z,14.23
2018-01-22T01:22:40.554Z,17.60
2018-01-22T01:25:08.798Z,17.00
2018-01-22T01:27:37.790Z,15.80
2018-01-22T01:30:11.797Z,14.17
2018-01-22T01:32:40.438Z,15.80
2018-01-22T01:35:14.725Z,12.60
2018-01-22T01:37:42.967Z,15.33
2018-01-22T01:40:11.237Z,14.93
2018-01-22T01:42:39.516Z,14.50
2018-01-22T01:45:14.740Z,16.10
2018-01-22T01:47:42.986Z,14.07
2018-01-22T01:50:14.213Z,13.63
2018-01-22T01:52:42.463Z,12.13
2018-01-22T01:55:12.173Z,14.30
2018-01-22T01:57:40.429Z,11.20
2018-01-22T02:00:11.844Z,12.50
2018-01-22T02:02:40.391Z,14.45
2018-01-22T02:05:10.133Z,14.70
2018-01-22T02:07:38.394Z,12.07
2018-01-22T02:10:11.487Z,13.30
2018-01-22T02:12:39.739Z,17.20
2018-01-22T02:15:14.341Z,11.80
2018-01-22T02:17:42.581Z,11.30
2018-01-22T02:20:15.462Z,14.30
2018-01-22T02:22:43.750Z,11.97
2018-01-22T02:25:12.459Z,11.90
2018-01-22T02:27:40.700Z,8.10
2018-01-22T02:30:14.057Z,14.50
2018-01-22T02:32:42.597Z,14.07
2018-01-22T02:35:11.571Z,11.33
2018-01-22T02:37:39.821Z,12.00
2018-01-22T02:40:11.092Z,14.05
2018-01-22T02:42:39.354Z,13.37
2018-01-22T02:45:11.983Z,10.73
2018-01-22T02:47:40.227Z,13.37
2018-01-22T02:50:13.486Z,12.95
2018-01-22T02:52:41.743Z,10.77
2018-01-22T02:55:16.254Z,13.80
2018-01-22T02:57:44.501Z,11.87
2018-01-22T03:00:15.617Z,12.97
2018-01-22T03:02:43.554Z,12.10
2018-01-22T03:05:12.100Z,12.98
2018-01-22T03:07:40.353Z,15.83
2018-01-22T03:10:18.450Z,15.37
2018-01-22T03:12:46.692Z,10.43
2018-01-22T03:15:14.965Z,11.07
2018-01-22T03:17:43.509Z,10.60
2018-01-22T03:20:13.133Z,14.47
2018-01-22T03:22:41.857Z,11.30
2018-01-22T03:25:14.947Z,12.83
2018-01-22T03:27:43.199Z,13.63
2018-01-22T03:30:11.849Z,16.53
2018-01-22T03:32:40.406Z,16.00
2018-01-22T03:35:19.001Z,17.57
2018-01-22T03:37:47.262Z,12.93
2018-01-22T03:40:15.510Z,14.07
2018-01-22T03:42:43.769Z,19.07
2018-01-22T03:45:12.025Z,15.87
2018-01-22T03:47:40.267Z,11.43
2018-01-22T03:50:10.876Z,16.60
2018-01-22T03:52:39.728Z,16.93
2018-01-22T03:55:13.946Z,19.50
2018-01-22T03:57:42.482Z,13.20
2018-01-22T04:00:10.738Z,23.73
2018-01-22T04:02:39.285Z,19.40
2018-01-22T04:05:14.216Z,15.30
2018-01-22T04:07:42.760Z,12.35
2018-01-22T04:10:11.296Z,21.25
2018-01-22T04:12:39.545Z,14.47
2018-01-22T04:15:15.323Z,16.03
2018-01-22T04:17:43.592Z,31.73
2018-01-22T04:20:14.781Z,26.80
2018-01-22T04:22:43.332Z,14.90
2018-01-22T04:25:11.880Z,16.10
2018-01-22T04:27:40.414Z,13.52
2018-01-22T04:30:11.435Z,19.40
2018-01-22T04:32:39.681Z,14.93
2018-01-22T04:35:10.081Z,13.67
2018-01-22T04:37:38.433Z,12.63
2018-01-22T04:40:11.013Z,21.75
2018-01-22T04:42:39.561Z,15.10
2018-01-22T04:45:15.745Z,12.93
2018-01-22T04:47:44.291Z,15.70
2018-01-22T04:50:12.837Z,16.33
2018-01-22T04:52:41.443Z,14.95
2018-01-22T04:55:14.516Z,12.93
2018-01-22T04:57:42.783Z,14.13
2018-01-22T05:00:11.330Z,13.27
2018-01-22T05:02:39.897Z,15.98
2018-01-22T05:05:10.613Z,15.10
2018-01-22T05:07:38.856Z,24.73
2018-01-22T05:10:11.849Z,18.90
2018-01-22T05:12:40.180Z,14.37
2018-01-22T05:15:15.017Z,17.83
2018-01-22T05:17:43.273Z,15.93
2018-01-22T05:20:15.025Z,17.90
2018-01-22T05:22:43.932Z,16.37
2018-01-22T05:25:12.188Z,14.33
2018-01-22T05:27:40.721Z,20.25
2018-01-22T05:30:10.628Z,26.67
2018-01-22T05:32:39.181Z,62.62
2018-01-22T05:35:13.016Z,30.73
2018-01-22T05:37:41.297Z,20.40
2018-01-22T05:40:10.495Z,18.50
2018-01-22T05:42:39.066Z,21.60
2018-01-22T05:45:14.634Z,16.02
2018-01-22T05:47:44.026Z,17.15
2018-01-22T05:50:12.289Z,20.80
2018-01-22T05:52:40.731Z,20.03
2018-01-22T05:55:12.510Z,20.43
2018-01-22T05:57:40.614Z,24.77
2018-01-22T06:00:14.421Z,19.23
2018-01-22T06:02:43.116Z,23.70
2018-01-22T06:05:13.073Z,18.70
2018-01-22T06:07:41.142Z,26.60
2018-01-22T06:10:09.212Z,22.17
2018-01-22T06:12:37.490Z,17.87
2018-01-22T06:17:37.925Z,16.80
2018-01-22T06:20:14.242Z,22.43
2018-01-22T06:22:42.320Z,28.17
2018-01-22T06:25:10.572Z,22.33
2018-01-22T06:27:38.828Z,22.70
2018-01-22T06:30:13.725Z,17.80
2018-01-22T06:32:42.063Z,26.40
2018-01-22T06:35:15.283Z,28.17
2018-01-22T06:37:43.581Z,19.97
2018-01-22T06:40:11.871Z,27.10
2018-01-22T06:42:40.146Z,30.97
2018-01-22T06:45:11.707Z,23.87
2018-01-22T06:47:39.961Z,22.17
2018-01-22T06:50:11.909Z,26.97
2018-01-22T06:52:40.790Z,26.35
2018-01-22T06:55:09.062Z,23.20
2018-01-22T06:57:37.316Z,22.07
2018-01-22T07:00:06.009Z,23.07
2018-01-22T07:02:34.283Z,24.23
2018-01-22T07:05:02.677Z,26.60
2018-01-22T07:07:30.960Z,24.90
2018-01-22T07:09:59.210Z,24.03
2018-01-22T07:12:27.475Z,28.03
2018-01-22T07:14:55.736Z,20.93
2018-01-22T07:17:23.985Z,26.43
2018-01-22T07:19:52.229Z,33.70
2018-01-22T07:22:20.482Z,24.47
2018-01-22T07:24:48.756Z,26.47
2018-01-22T07:27:16.722Z,20.33
2018-01-22T07:29:44.985Z,25.43
2018-01-22T07:32:13.240Z,31.60
2018-01-22T07:34:41.481Z,30.90
2018-01-22T07:37:09.733Z,29.03
2018-01-22T07:39:37.979Z,29.93
2018-01-22T07:42:06.262Z,22.77
2018-01-22T07:44:34.521Z,23.20
2018-01-22T07:47:02.792Z,27.27
2018-01-22T07:49:31.059Z,36.40
2018-01-22T07:51:59.329Z,36.93
2018-01-22T07:54:27.779Z,25.43
2018-01-22T07:56:56.037Z,37.47
2018-01-22T07:59:24.307Z,50.30
2018-01-22T08:01:52.716Z,36.80
2018-01-22T08:04:20.953Z,26.90
2018-01-22T08:06:49.220Z,27.33
2018-01-22T08:09:17.474Z,31.10
2018-01-22T08:11:45.754Z,39.50
2018-01-22T08:14:13.840Z,33.00
2018-01-22T08:16:42.105Z,33.13
2018-01-22T08:19:10.385Z,38.70
2018-01-22T08:21:38.448Z,39.70
2018-01-22T08:24:06.785Z,30.70
2018-01-22T08:26:35.237Z,39.37
2018-01-22T08:29:03.503Z,42.57
2018-01-22T08:31:31.764Z,37.33
2018-01-22T08:34:00.026Z,38.17
2018-01-22T08:36:28.286Z,39.37
2018-01-22T08:38:56.536Z,46.20
2018-01-22T08:41:24.802Z,41.23
2018-01-22T08:43:53.053Z,24.70
2018-01-22T08:46:21.321Z,34.40
2018-01-22T08:48:49.588Z,24.83
2018-01-22T08:51:17.838Z,29.23
2018-01-22T08:53:46.103Z,36.00
2018-01-22T08:56:14.550Z,31.60
2018-01-22T08:58:42.860Z,30.60
2018-01-22T09:01:11.144Z,36.07
2018-01-22T09:03:39.423Z,36.23
2018-01-22T09:06:07.683Z,35.57
2018-01-22T09:08:36.373Z,37.53
2018-01-22T09:11:05.059Z,29.30
2018-01-22T09:13:33.309Z,34.73
2018-01-22T09:16:01.742Z,31.37
2018-01-22T09:18:30.018Z,33.47
2018-01-22T09:20:58.272Z,33.70
2018-01-22T09:23:26.540Z,33.40
2018-01-22T09:25:54.976Z,34.50
2018-01-22T09:28:23.241Z,33.93
2018-01-22T09:30:51.492Z,33.07
2018-01-22T09:33:19.768Z,36.57
2018-01-22T09:35:48.035Z,36.73
2018-01-22T09:38:16.285Z,34.13
2018-01-22T09:40:44.537Z,37.33
2018-01-22T09:43:12.802Z,38.00
2018-01-22T09:45:41.062Z,37.17
2018-01-22T09:48:09.322Z,32.23
2018-01-22T09:50:37.609Z,32.93
2018-01-22T09:53:05.877Z,43.30
2018-01-22T09:55:34.133Z,32.90
2018-01-22T09:58:02.384Z,33.43
2018-01-22T10:00:30.670Z,31.37
2018-01-22T10:02:58.934Z,35.83
2018-01-22T10:05:27.197Z,28.57
2018-01-22T10:07:55.466Z,30.97
2018-01-22T10:10:23.709Z,33.70
2018-01-22T10:12:52.055Z,27.80
2018-01-22T10:15:20.487Z,34.23
2018-01-22T10:17:48.750Z,31.57
2018-01-22T10:20:16.993Z,27.30
2018-01-22T10:22:45.250Z,28.27
2018-01-22T10:25:13.525Z,29.40
2018-01-22T10:27:41.780Z,25.53
2018-01-22T10:30:11.501Z,22.37
2018-01-22T10:32:39.759Z,27.77
2018-01-22T10:35:08.046Z,19.97
2018-01-22T10:37:36.371Z,22.03
2018-01-22T10:40:05.309Z,22.20
2018-01-22T10:42:33.694Z,30.77
2018-01-22T10:45:01.767Z,24.93
2018-01-22T10:47:30.026Z,25.60
2018-01-22T10:49:58.116Z,24.60
2018-01-22T10:52:26.401Z,29.80
2018-01-22T10:54:54.676Z,35.63
2018-01-22T10:57:23.534Z,24.50
2018-01-22T10:59:51.813Z,31.37
2018-01-22T11:02:20.087Z,35.53
2018-01-22T11:04:48.345Z,34.77
2018-01-22T11:07:16.598Z,30.63
2018-01-22T11:09:44.870Z,38.03
2018-01-22T11:12:13.120Z,32.97
2018-01-22T11:14:41.424Z,38.80
2018-01-22T11:17:10.616Z,37.83
2018-01-22T11:19:39.145Z,33.90
2018-01-22T11:22:07.553Z,37.17
2018-01-22T11:24:35.880Z,31.47
2018-01-22T11:27:04.154Z,38.20
2018-01-22T11:29:32.407Z,34.30
2018-01-22T11:32:00.664Z,43.70
2018-01-22T11:34:28.965Z,36.50
2018-01-22T11:36:57.075Z,38.80
2018-01-22T11:39:25.478Z,29.90
2018-01-22T11:41:53.748Z,36.37
2018-01-22T11:44:22.019Z,37.50
2018-01-22T11:46:50.296Z,32.07
2018-01-22T11:49:18.557Z,37.53
2018-01-22T11:51:46.817Z,33.20
2018-01-22T11:54:15.064Z,32.97
2018-01-22T11:56:43.343Z,32.17
2018-01-22T11:59:12.487Z,33.47
2018-01-22T12:01:40.741Z,37.87
2018-01-22T12:04:09.017Z,43.80
2018-01-22T12:06:37.273Z,44.53
2018-01-22T12:09:05.656Z,35.50
2018-01-22T12:11:34.084Z,36.60
2018-01-22T12:14:02.336Z,53.37
2018-01-22T12:16:30.605Z,32.07
2018-01-22T12:18:58.879Z,40.63
2018-01-22T12:21:27.117Z,33.40
2018-01-22T12:23:55.385Z,23.50
2018-01-22T12:26:23.628Z,36.93
2018-01-22T12:28:51.877Z,26.93
2018-01-22T12:31:20.130Z,35.20
2018-01-22T12:33:48.378Z,36.60
2018-01-22T12:36:16.647Z,30.93
2018-01-22T12:38:44.945Z,35.20
2018-01-22T12:41:13.205Z,31.37
2018-01-22T12:43:41.473Z,36.63
2018-01-22T12:46:09.723Z,32.60
2018-01-22T12:48:37.989Z,42.83
2018-01-22T12:51:06.237Z,35.67
2018-01-22T12:53:34.509Z,35.70
2018-01-22T12:56:02.760Z,32.53
2018-01-22T12:58:31.020Z,31.83
2018-01-22T13:00:59.274Z,31.60
2018-01-22T13:03:27.530Z,29.30
2018-01-22T13:05:55.813Z,29.63
2018-01-22T13:08:24.057Z,25.03
2018-01-22T13:10:53.196Z,25.27
2018-01-22T13:13:21.440Z,24.60
2018-01-22T13:15:49.694Z,23.80
2018-01-22T13:18:17.954Z,21.17
2018-01-22T13:20:46.217Z,18.97
2018-01-22T13:23:14.466Z,26.57
2018-01-22T13:25:42.735Z,30.07
2018-01-22T13:28:11.001Z,21.00
2018-01-22T13:30:39.281Z,25.57
2018-01-22T13:33:07.541Z,25.70
2018-01-22T13:35:35.801Z,21.03
2018-01-22T13:38:04.068Z,22.90
2018-01-22T13:40:37.681Z,24.77
2018-01-22T13:43:05.925Z,22.90
2018-01-22T13:45:34.193Z,17.87
2018-01-22T13:48:02.441Z,25.40
2018-01-22T13:50:30.721Z,25.00
2018-01-22T13:52:58.989Z,25.10
2018-01-22T13:55:27.245Z,28.77
2018-01-22T13:57:55.490Z,46.60
2018-01-22T14:00:23.740Z,32.33
2018-01-22T14:02:52.000Z,31.50
2018-01-22T14:05:20.269Z,31.10
2018-01-22T14:07:48.521Z,28.03
2018-01-22T14:10:16.586Z,28.40
2018-01-22T14:12:44.833Z,32.30
2018-01-22T14:15:13.102Z,32.80
2018-01-22T14:17:41.389Z,40.27
2018-01-22T14:20:09.651Z,32.43
2018-01-22T14:22:37.745Z,48.10
2018-01-22T14:25:05.996Z,27.50
2018-01-22T14:27:34.260Z,23.67
2018-01-22T14:30:02.547Z,36.23
2018-01-22T14:32:31.648Z,36.40
2018-01-22T14:34:59.912Z,31.40
2018-01-22T14:37:29.154Z,29.50
2018-01-22T14:39:57.921Z,28.10
2018-01-22T14:42:26.180Z,35.10
2018-01-22T14:44:54.453Z,40.50
2018-01-22T14:47:23.961Z,44.27
2018-01-22T14:49:52.221Z,41.73
2018-01-22T14:52:20.474Z,33.20
2018-01-22T14:54:48.741Z,32.97
2018-01-22T14:57:17.018Z,31.73
2018-01-22T14:59:45.261Z,40.80
2018-01-22T15:02:13.522Z,34.73
2018-01-22T15:04:41.819Z,34.73
2018-01-22T15:07:10.079Z,31.77
2018-01-22T15:09:38.334Z,35.40
2018-01-22T15:12:06.590Z,31.20
2018-01-22T15:14:34.841Z,36.30
2018-01-22T15:17:03.095Z,37.50
2018-01-22T15:19:31.376Z,42.57
2018-01-22T15:21:59.640Z,32.20
2018-01-22T15:24:27.908Z,29.17
2018-01-22T15:26:56.152Z,30.00
2018-01-22T15:29:25.810Z,44.07
2018-01-22T15:31:54.065Z,33.20
2018-01-22T15:34:22.322Z,36.03
2018-01-22T15:36:51.360Z,34.93
2018-01-22T15:39:19.615Z,34.30
2018-01-22T15:41:48.854Z,31.53
2018-01-22T15:44:17.194Z,34.07
2018-01-22T15:46:45.634Z,31.27
2018-01-22T15:49:15.116Z,49.17
2018-01-22T15:51:43.642Z,28.90
2018-01-22T15:54:11.889Z,36.73
2018-01-22T15:56:40.149Z,33.20
2018-01-22T15:59:08.396Z,40.70
2018-01-22T16:01:36.653Z,43.60
2018-01-22T16:04:04.929Z,43.50
2018-01-22T16:06:33.213Z,41.77
2018-01-22T16:09:01.273Z,49.73
2018-01-22T16:11:29.525Z,42.37
2018-01-22T16:13:57.768Z,49.03
2018-01-22T16:16:26.027Z,43.63
2018-01-22T16:18:54.282Z,44.30
2018-01-22T16:21:22.565Z,46.93
2018-01-22T16:23:50.841Z,41.20
2018-01-22T16:26:19.100Z,40.20
2018-01-22T16:28:47.366Z,43.40
2018-01-22T16:31:15.616Z,38.80
2018-01-22T16:33:43.888Z,45.60
2018-01-22T16:36:12.169Z,45.13
2018-01-22T16:38:40.416Z,43.00
2018-01-22T16:41:08.665Z,41.63
2018-01-22T16:43:36.929Z,37.33
2018-01-22T16:46:04.855Z,45.90
2018-01-22T16:48:33.109Z,44.67
2018-01-22T16:51:01.374Z,43.27
2018-01-22T16:53:29.379Z,38.80
2018-01-22T16:55:57.657Z,43.30
2018-01-22T16:58:25.905Z,42.97
2018-01-22T17:00:54.169Z,40.67
2018-01-22T17:03:22.432Z,40.07
2018-01-22T17:05:50.684Z,39.70
2018-01-22T17:08:19.427Z,31.93
2018-01-22T17:10:47.676Z,37.20
2018-01-22T17:13:15.962Z,37.60
2018-01-22T17:15:44.216Z,41.07
2018-01-22T17:18:12.484Z,38.20
2018-01-22T17:20:40.734Z,37.97
2018-01-22T17:23:08.989Z,42.43
2018-01-22T17:25:37.244Z,28.37
2018-01-22T17:28:05.521Z,31.70
2018-01-22T17:30:33.772Z,29.43
2018-01-22T17:33:02.076Z,29.77
2018-01-22T17:35:30.330Z,29.37
2018-01-22T17:37:58.611Z,36.07
2018-01-22T17:40:26.899Z,28.57
2018-01-22T17:42:55.171Z,27.43
2018-01-22T17:45:23.497Z,30.50
2018-01-22T17:47:51.775Z,32.83
2018-01-22T17:50:20.027Z,24.70
2018-01-22T17:52:48.278Z,32.13
2018-01-22T17:55:16.533Z,34.20
2018-01-22T17:57:44.796Z,32.13
2018-01-22T18:00:13.053Z,25.30
2018-01-22T18:02:41.312Z,24.80
2018-01-22T18:05:09.578Z,24.47
2018-01-22T18:07:37.946Z,31.03
2018-01-22T18:10:06.382Z,24.63
2018-01-22T18:12:34.697Z,29.30
2018-01-22T18:15:03.004Z,27.77
2018-01-22T18:17:31.284Z,26.07
2018-01-22T18:19:59.568Z,27.27
2018-01-22T18:22:27.845Z,34.63
2018-01-22T18:24:56.101Z,31.10
2018-01-22T18:27:24.164Z,29.73
2018-01-22T18:29:52.429Z,31.87
2018-01-22T18:32:20.686Z,31.73
2018-01-22T18:34:48.944Z,29.20
2018-01-22T18:37:17.185Z,30.10
2018-01-22T18:39:45.441Z,31.87
2018-01-22T18:42:13.696Z,34.07
2018-01-22T18:44:41.972Z,40.20
2018-01-22T18:47:10.271Z,33.90
2018-01-22T18:49:38.541Z,37.13
2018-01-22T18:52:06.810Z,39.07
2018-01-22T18:54:35.056Z,33.03
2018-01-22T18:57:03.325Z,43.77
2018-01-22T18:59:31.582Z,35.63
2018-01-22T19:01:59.858Z,39.70
2018-01-22T19:04:28.310Z,35.20
2018-01-22T19:06:56.564Z,34.90
2018-01-22T19:09:24.914Z,32.70
2018-01-22T19:11:53.165Z,32.37
2018-01-22T19:14:21.445Z,32.87
2018-01-22T19:16:49.706Z,35.50
2018-01-22T19:19:17.969Z,31.70
2018-01-22T19:21:46.262Z,43.00
2018-01-22T19:24:14.547Z,37.67
2018-01-22T19:26:42.816Z,35.57
2018-01-22T19:29:11.089Z,35.60
2018-01-22T19:31:39.381Z,40.70
2018-01-22T19:34:07.640Z,44.30
2018-01-22T19:36:35.902Z,36.33
2018-01-22T19:39:03.520Z,36.23
2018-01-22T19:41:33.455Z,36.20
2018-01-22T19:44:01.694Z,50.47
2018-01-22T19:46:29.947Z,31.27
2018-01-22T19:48:58.844Z,35.70
2018-01-22T19:51:27.121Z,29.80
2018-01-22T19:53:55.376Z,32.57
2018-01-22T19:56:23.625Z,30.60
2018-01-22T19:58:51.879Z,42.80
2018-01-22T20:01:20.139Z,33.80
2018-01-22T20:03:48.401Z,33.53
2018-01-22T20:06:16.665Z,34.60
2018-01-22T20:08:44.916Z,37.40
2018-01-22T20:11:13.172Z,34.70
2018-01-22T20:13:41.429Z,30.67
2018-01-22T20:16:09.696Z,28.80
2018-01-22T20:18:37.957Z,37.63
2018-01-22T20:21:06.229Z,32.90
2018-01-22T20:23:34.480Z,32.37
2018-01-22T20:26:02.790Z,34.00
2018-01-22T20:28:31.135Z,36.10
2018-01-22T20:30:59.395Z,34.77
2018-01-22T20:33:27.686Z,31.60
2018-01-22T20:35:55.975Z,36.47
2018-01-22T20:38:24.237Z,39.97
2018-01-22T20:40:52.539Z,34.03
2018-01-22T20:43:20.962Z,34.00
2018-01-22T20:45:49.211Z,29.97
2018-01-22T20:48:17.977Z,32.10
2018-01-22T20:50:46.244Z,32.53
2018-01-22T20:53:15.242Z,33.33
2018-01-22T20:55:43.501Z,30.93
2018-01-22T20:58:11.751Z,31.17
2018-01-22T21:00:40.002Z,32.00
2018-01-22T21:03:08.265Z,28.63
2018-01-22T21:05:36.519Z,27.70
2018-01-22T21:08:04.781Z,30.93
2018-01-22T21:10:33.029Z,32.37
2018-01-22T21:13:00.956Z,31.20
2018-01-22T21:15:30.240Z,30.13
2018-01-22T21:17:58.490Z,32.30
2018-01-22T21:20:26.768Z,36.50
2018-01-22T21:22:55.031Z,29.70
2018-01-22T21:25:23.280Z,34.73
2018-01-22T21:27:51.829Z,31.17
2018-01-22T21:30:20.074Z,35.70
2018-01-22T21:32:48.386Z,29.70
2018-01-22T21:35:16.666Z,35.03
2018-01-22T21:37:44.935Z,35.10
2018-01-22T21:40:14.441Z,34.00
2018-01-22T21:42:43.152Z,34.70
2018-01-22T21:45:11.418Z,34.63
2018-01-22T21:47:39.684Z,32.87
2018-01-22T21:50:09.065Z,33.37
2018-01-22T21:52:37.351Z,30.33
2018-01-22T21:55:09.458Z,33.10
2018-01-22T21:57:38.273Z,36.80
2018-01-22T22:00:11.509Z,32.80
2018-01-22T22:02:40.025Z,34.80
2018-01-22T22:05:13.497Z,35.27
2018-01-22T22:07:41.749Z,41.30
2018-01-22T22:10:10.656Z,32.80
2018-01-22T22:12:38.917Z,29.50
2018-01-22T22:15:07.192Z,29.90
2018-01-22T22:17:35.445Z,31.93
2018-01-22T22:20:05.685Z,30.90
2018-01-22T22:22:33.942Z,35.23
2018-01-22T22:25:02.281Z,35.70
2018-01-22T22:27:30.968Z,36.27
2018-01-22T22:29:59.260Z,32.83
2018-01-22T22:32:27.537Z,36.00
2018-01-22T22:34:55.797Z,34.10
2018-01-22T22:37:24.048Z,33.53
2018-01-22T22:39:52.318Z,35.60
2018-01-22T22:42:20.595Z,44.93
2018-01-22T22:44:49.288Z,42.47
2018-01-22T22:47:18.149Z,36.33
2018-01-22T22:49:46.413Z,43.57
2018-01-22T22:52:14.657Z,40.00
2018-01-22T22:54:42.905Z,37.40
2018-01-22T22:57:11.185Z,38.20
2018-01-22T22:59:39.448Z,36.77
2018-01-22T23:02:07.708Z,34.37
2018-01-22T23:04:35.985Z,40.20
2018-01-22T23:07:04.281Z,32.70
2018-01-22T23:09:32.564Z,34.23
2018-01-22T23:12:00.834Z,32.67
2018-01-22T23:14:29.096Z,36.90
2018-01-22T23:16:57.377Z,39.73
2018-01-22T23:19:25.651Z,36.57
2018-01-22T23:21:53.924Z,38.73
2018-01-22T23:24:22.238Z,38.37
2018-01-22T23:26:50.497Z,39.63
2018-01-22T23:29:18.769Z,44.73
2018-01-22T23:31:47.065Z,43.43
2018-01-22T23:34:15.329Z,37.73
2018-01-22T23:36:43.262Z,38.10
2018-01-22T23:39:11.509Z,43.00
2018-01-22T23:41:39.819Z,45.10
2018-01-22T23:44:08.217Z,46.07
2018-01-22T23:46:36.481Z,40.80
2018-01-22T23:49:04.745Z,48.17
2018-01-22T23:51:33.617Z,48.83
2018-01-22T23:54:01.872Z,44.10
2018-01-22T23:56:30.129Z,49.67
2018-01-22T23:58:58.390Z,47.57
